sensor_id;sensor_type;location;lat;lon;timestamp;P1;durP1;ratioP1;P2;durP2;ratioP2
39294;SDS011;52361;52.100;5.248;2022-12-18T00:01:00;19.41;;;10.9;;
39294;SDS011;52361;52.100;5.248;2022-12-18T00:02:36;20.11;;;12.5;;
39294;SDS011;52361;52.100;5.248;2022-12-18T00:04:14;14.9;;;10.1;;
39294;SDS011;52361;52.100;5.248;2022-12-18T00:05:58;28.3;;;9.5;;
39294;SDS011;52361;52.100;5.248;2022-12-18T00:09:12;22.9;;;11.6;;
39294;SDS011;52361;52.100;5.248;2022-12-18T00:10:48;23.2;;;13.6;;
39294;SDS011;52361;52.100;5.248;2022-12-18T00:12:24;25.5;;;11.0;;
39294;SDS011;52361;52.100;5.248;2022-12-18T00:15:37;22.0;;;12.1;;
39294;SDS011;52361;52.100;5.248;2022-12-18T00:17:14;23.6;;;11.6;;
39294;SDS011;52361;52.100;5.248;2022-12-18T00:18:52;19.3;;;11.5;;
39294;SDS011;52361;52.100;5.248;2022-12-18T00:22:12;24.9;;;10.5;;
39294;SDS011;52361;52.100;5.248;2022-12-18T00:23:50;19.61;;;8.1;;
39294;SDS011;52361;52.100;5.248;2022-12-18T00:25:26;18.11;;;9.9;;
39294;SDS011;52361;52.100;5.248;2022-12-18T00:27:03;15.5;;;9.31;;
39294;SDS011;52361;52.100;5.248;2022-12-18T00:30:15;19.3;;;9.6;;
39294;SDS011;52361;52.100;5.248;2022-12-18T00:33:28;22.5;;;11.3;;
39294;SDS011;52361;52.100;5.248;2022-12-18T00:35:06;21.4;;;11.5;;
39294;SDS011;52361;52.100;5.248;2022-12-18T00:38:19;20.5;;;10.9;;
39294;SDS011;52361;52.100;5.248;2022-12-18T00:39:55;17.41;;;9.31;;
39294;SDS011;52361;52.100;5.248;2022-12-18T00:41:31;17.3;;;10.9;;
39294;SDS011;52361;52.100;5.248;2022-12-18T00:44:44;23.3;;;10.6;;
39294;SDS011;52361;52.100;5.248;2022-12-18T00:46:21;18.61;;;9.71;;
39294;SDS011;52361;52.100;5.248;2022-12-18T00:51:09;14.1;;;11.0;;
39294;SDS011;52361;52.100;5.248;2022-12-18T00:52:45;24.3;;;11.6;;
39294;SDS011;52361;52.100;5.248;2022-12-18T00:54:22;20.3;;;10.6;;
39294;SDS011;52361;52.100;5.248;2022-12-18T00:55:59;20.41;;;10.3;;
39294;SDS011;52361;52.100;5.248;2022-12-18T00:59:11;15.9;;;10.4;;
39294;SDS011;52361;52.100;5.248;2022-12-18T01:00:47;14.1;;;9.1;;
39294;SDS011;52361;52.100;5.248;2022-12-18T01:02:24;22.0;;;9.31;;
39294;SDS011;52361;52.100;5.248;2022-12-18T01:05:38;28.9;;;12.4;;
39294;SDS011;52361;52.100;5.248;2022-12-18T01:07:15;19.0;;;10.9;;
39294;SDS011;52361;52.100;5.248;2022-12-18T01:08:51;26.7;;;12.7;;
39294;SDS011;52361;52.100;5.248;2022-12-18T01:12:04;19.5;;;10.6;;
39294;SDS011;52361;52.100;5.248;2022-12-18T01:13:41;18.2;;;10.0;;
39294;SDS011;52361;52.100;5.248;2022-12-18T01:15:18;17.0;;;11.1;;
39294;SDS011;52361;52.100;5.248;2022-12-18T01:16:55;21.3;;;10.3;;
39294;SDS011;52361;52.100;5.248;2022-12-18T01:20:08;15.6;;;9.5;;
39294;SDS011;52361;52.100;5.248;2022-12-18T01:21:47;19.5;;;10.9;;
39294;SDS011;52361;52.100;5.248;2022-12-18T01:23:23;16.5;;;10.9;;
39294;SDS011;52361;52.100;5.248;2022-12-18T01:26:40;22.6;;;12.9;;
39294;SDS011;52361;52.100;5.248;2022-12-18T01:28:16;22.4;;;13.1;;
39294;SDS011;52361;52.100;5.248;2022-12-18T01:29:53;18.3;;;9.6;;
39294;SDS011;52361;52.100;5.248;2022-12-18T01:31:31;21.0;;;11.0;;
39294;SDS011;52361;52.100;5.248;2022-12-18T01:34:45;20.2;;;10.21;;
39294;SDS011;52361;52.100;5.248;2022-12-18T01:36:22;15.3;;;11.1;;
39294;SDS011;52361;52.100;5.248;2022-12-18T01:38:00;12.9;;;10.0;;
39294;SDS011;52361;52.100;5.248;2022-12-18T01:41:13;18.5;;;11.1;;
39294;SDS011;52361;52.100;5.248;2022-12-18T01:42:55;27.5;;;12.4;;
39294;SDS011;52361;52.100;5.248;2022-12-18T01:45:04;19.41;;;11.6;;
39294;SDS011;52361;52.100;5.248;2022-12-18T01:46:56;21.8;;;11.2;;
39294;SDS011;52361;52.100;5.248;2022-12-18T01:48:33;20.3;;;11.4;;
39294;SDS011;52361;52.100;5.248;2022-12-18T01:51:50;19.5;;;11.1;;
39294;SDS011;52361;52.100;5.248;2022-12-18T01:53:27;23.6;;;12.4;;
39294;SDS011;52361;52.100;5.248;2022-12-18T01:55:04;25.0;;;13.4;;
39294;SDS011;52361;52.100;5.248;2022-12-18T01:56:42;19.11;;;11.2;;
39294;SDS011;52361;52.100;5.248;2022-12-18T02:00:02;16.7;;;9.71;;
39294;SDS011;52361;52.100;5.248;2022-12-18T02:01:43;17.5;;;11.6;;
39294;SDS011;52361;52.100;5.248;2022-12-18T02:03:19;27.5;;;11.1;;
39294;SDS011;52361;52.100;5.248;2022-12-18T02:06:33;17.41;;;10.1;;
39294;SDS011;52361;52.100;5.248;2022-12-18T02:08:16;16.9;;;10.7;;
39294;SDS011;52361;52.100;5.248;2022-12-18T02:10:02;16.2;;;8.6;;
39294;SDS011;52361;52.100;5.248;2022-12-18T02:11:46;19.7;;;11.2;;
39294;SDS011;52361;52.100;5.248;2022-12-18T02:17:03;16.8;;;11.4;;
39294;SDS011;52361;52.100;5.248;2022-12-18T02:18:47;17.61;;;10.9;;
39294;SDS011;52361;52.100;5.248;2022-12-18T02:20:32;16.7;;;11.4;;
39294;SDS011;52361;52.100;5.248;2022-12-18T02:22:16;18.41;;;10.6;;
39294;SDS011;52361;52.100;5.248;2022-12-18T02:24:10;14.9;;;9.81;;
39294;SDS011;52361;52.100;5.248;2022-12-18T02:26:02;19.61;;;12.2;;
39294;SDS011;52361;52.100;5.248;2022-12-18T02:29:27;26.4;;;12.8;;
39294;SDS011;52361;52.100;5.248;2022-12-18T02:31:09;21.8;;;12.4;;
39294;SDS011;52361;52.100;5.248;2022-12-18T02:32:52;16.8;;;11.0;;
39294;SDS011;52361;52.100;5.248;2022-12-18T02:34:31;20.0;;;12.5;;
39294;SDS011;52361;52.100;5.248;2022-12-18T02:37:52;25.9;;;12.7;;
39294;SDS011;52361;52.100;5.248;2022-12-18T02:39:29;19.3;;;12.4;;
39294;SDS011;52361;52.100;5.248;2022-12-18T02:41:08;18.61;;;11.6;;
39294;SDS011;52361;52.100;5.248;2022-12-18T02:42:45;23.4;;;13.3;;
39294;SDS011;52361;52.100;5.248;2022-12-18T02:45:58;18.11;;;10.8;;
39294;SDS011;52361;52.100;5.248;2022-12-18T02:47:56;22.1;;;11.3;;
39294;SDS011;52361;52.100;5.248;2022-12-18T02:49:34;28.1;;;14.2;;
39294;SDS011;52361;52.100;5.248;2022-12-18T02:51:21;19.3;;;12.1;;
39294;SDS011;52361;52.100;5.248;2022-12-18T02:54:55;20.2;;;12.0;;
39294;SDS011;52361;52.100;5.248;2022-12-18T02:56:41;28.7;;;12.6;;
39294;SDS011;52361;52.100;5.248;2022-12-18T02:58:26;16.7;;;9.9;;
39294;SDS011;52361;52.100;5.248;2022-12-18T03:00:10;24.8;;;13.0;;
39294;SDS011;52361;52.100;5.248;2022-12-18T03:03:35;18.2;;;11.9;;
39294;SDS011;52361;52.100;5.248;2022-12-18T03:06:59;29.3;;;14.6;;
39294;SDS011;52361;52.100;5.248;2022-12-18T03:08:42;23.0;;;12.1;;
39294;SDS011;52361;52.100;5.248;2022-12-18T03:10:24;24.0;;;12.4;;
39294;SDS011;52361;52.100;5.248;2022-12-18T03:12:06;22.8;;;11.7;;
39294;SDS011;52361;52.100;5.248;2022-12-18T03:15:34;21.4;;;11.2;;
39294;SDS011;52361;52.100;5.248;2022-12-18T03:17:14;19.41;;;13.3;;
39294;SDS011;52361;52.100;5.248;2022-12-18T03:18:56;18.8;;;11.6;;
39294;SDS011;52361;52.100;5.248;2022-12-18T03:20:37;26.2;;;13.8;;
39294;SDS011;52361;52.100;5.248;2022-12-18T03:23:59;26.3;;;15.3;;
39294;SDS011;52361;52.100;5.248;2022-12-18T03:25:38;26.3;;;15.3;;
39294;SDS011;52361;52.100;5.248;2022-12-18T03:27:18;19.3;;;13.8;;
39294;SDS011;52361;52.100;5.248;2022-12-18T03:28:59;24.3;;;13.1;;
39294;SDS011;52361;52.100;5.248;2022-12-18T03:32:23;19.8;;;12.6;;
39294;SDS011;52361;52.100;5.248;2022-12-18T03:34:04;19.7;;;13.0;;
39294;SDS011;52361;52.100;5.248;2022-12-18T03:35:48;25.4;;;12.1;;
39294;SDS011;52361;52.100;5.248;2022-12-18T03:37:25;19.5;;;12.7;;
39294;SDS011;52361;52.100;5.248;2022-12-18T03:40:50;19.8;;;12.7;;
39294;SDS011;52361;52.100;5.248;2022-12-18T03:42:36;19.5;;;11.3;;
39294;SDS011;52361;52.100;5.248;2022-12-18T03:44:23;17.5;;;12.1;;
39294;SDS011;52361;52.100;5.248;2022-12-18T03:46:08;22.3;;;12.6;;
39294;SDS011;52361;52.100;5.248;2022-12-18T03:47:54;19.41;;;12.0;;
39294;SDS011;52361;52.100;5.248;2022-12-18T03:49:38;18.5;;;11.0;;
39294;SDS011;52361;52.100;5.248;2022-12-18T03:53:08;19.61;;;12.3;;
39294;SDS011;52361;52.100;5.248;2022-12-18T03:54:55;25.4;;;12.6;;
39294;SDS011;52361;52.100;5.248;2022-12-18T03:56:35;19.0;;;10.6;;
39294;SDS011;52361;52.100;5.248;2022-12-18T03:58:17;17.7;;;11.2;;
39294;SDS011;52361;52.100;5.248;2022-12-18T04:01:38;20.8;;;11.3;;
39294;SDS011;52361;52.100;5.248;2022-12-18T04:03:18;19.0;;;11.5;;
39294;SDS011;52361;52.100;5.248;2022-12-18T04:04:57;20.7;;;13.4;;
39294;SDS011;52361;52.100;5.248;2022-12-18T04:06:38;21.2;;;10.1;;
39294;SDS011;52361;52.100;5.248;2022-12-18T04:09:53;20.6;;;10.8;;
39294;SDS011;52361;52.100;5.248;2022-12-18T04:11:32;19.91;;;12.2;;
39294;SDS011;52361;52.100;5.248;2022-12-18T04:13:09;16.2;;;9.21;;
39294;SDS011;52361;52.100;5.248;2022-12-18T04:14:44;20.9;;;11.4;;
39294;SDS011;52361;52.100;5.248;2022-12-18T04:17:57;16.8;;;9.1;;
39294;SDS011;52361;52.100;5.248;2022-12-18T04:19:33;14.3;;;10.1;;
39294;SDS011;52361;52.100;5.248;2022-12-18T04:21:09;13.5;;;11.4;;
39294;SDS011;52361;52.100;5.248;2022-12-18T04:24:24;13.4;;;9.0;;
39294;SDS011;52361;52.100;5.248;2022-12-18T04:26:00;15.5;;;8.2;;
39294;SDS011;52361;52.100;5.248;2022-12-18T04:27:36;13.3;;;8.81;;
39294;SDS011;52361;52.100;5.248;2022-12-18T04:30:48;10.0;;;7.8;;
39294;SDS011;52361;52.100;5.248;2022-12-18T04:32:24;16.5;;;9.1;;
39294;SDS011;52361;52.100;5.248;2022-12-18T04:34:01;13.1;;;7.0;;
39294;SDS011;52361;52.100;5.248;2022-12-18T04:35:37;19.0;;;9.4;;
39294;SDS011;52361;52.100;5.248;2022-12-18T04:38:49;16.61;;;9.5;;
39294;SDS011;52361;52.100;5.248;2022-12-18T04:40:25;11.8;;;8.31;;
39294;SDS011;52361;52.100;5.248;2022-12-18T04:42:01;13.2;;;8.81;;
39294;SDS011;52361;52.100;5.248;2022-12-18T04:45:14;11.8;;;7.3;;
39294;SDS011;52361;52.100;5.248;2022-12-18T04:46:50;14.0;;;8.31;;
39294;SDS011;52361;52.100;5.248;2022-12-18T04:48:26;9.5;;;7.2;;
39294;SDS011;52361;52.100;5.248;2022-12-18T04:51:40;14.2;;;8.1;;
39294;SDS011;52361;52.100;5.248;2022-12-18T04:53:16;11.7;;;8.2;;
39294;SDS011;52361;52.100;5.248;2022-12-18T04:54:52;11.0;;;7.3;;
39294;SDS011;52361;52.100;5.248;2022-12-18T04:58:07;13.2;;;6.9;;
39294;SDS011;52361;52.100;5.248;2022-12-18T04:59:43;14.0;;;7.5;;
39294;SDS011;52361;52.100;5.248;2022-12-18T05:01:19;10.8;;;7.7;;
39294;SDS011;52361;52.100;5.248;2022-12-18T05:02:55;15.3;;;8.31;;
39294;SDS011;52361;52.100;5.248;2022-12-18T05:06:08;10.5;;;7.4;;
39294;SDS011;52361;52.100;5.248;2022-12-18T05:07:45;11.7;;;7.2;;
39294;SDS011;52361;52.100;5.248;2022-12-18T05:09:21;12.7;;;6.9;;
39294;SDS011;52361;52.100;5.248;2022-12-18T05:12:36;9.1;;;6.4;;
39294;SDS011;52361;52.100;5.248;2022-12-18T05:14:13;10.4;;;5.8;;
39294;SDS011;52361;52.100;5.248;2022-12-18T05:15:51;9.81;;;6.8;;
39294;SDS011;52361;52.100;5.248;2022-12-18T05:17:28;15.8;;;7.4;;
39294;SDS011;52361;52.100;5.248;2022-12-18T05:20:40;11.8;;;6.8;;
39294;SDS011;52361;52.100;5.248;2022-12-18T05:22:17;12.3;;;7.4;;
39294;SDS011;52361;52.100;5.248;2022-12-18T05:23:53;8.31;;;6.1;;
39294;SDS011;52361;52.100;5.248;2022-12-18T05:27:05;9.9;;;6.2;;
39294;SDS011;52361;52.100;5.248;2022-12-18T05:28:41;14.1;;;7.9;;
39294;SDS011;52361;52.100;5.248;2022-12-18T05:30:18;8.81;;;6.0;;
39294;SDS011;52361;52.100;5.248;2022-12-18T05:33:31;10.5;;;6.7;;
39294;SDS011;52361;52.100;5.248;2022-12-18T05:35:10;16.11;;;7.6;;
39294;SDS011;52361;52.100;5.248;2022-12-18T05:36:47;16.11;;;7.6;;
39294;SDS011;52361;52.100;5.248;2022-12-18T05:38:24;10.7;;;6.2;;
39294;SDS011;52361;52.100;5.248;2022-12-18T05:41:40;11.2;;;6.1;;
39294;SDS011;52361;52.100;5.248;2022-12-18T05:43:16;9.1;;;6.2;;
39294;SDS011;52361;52.100;5.248;2022-12-18T05:44:53;9.1;;;5.9;;
39294;SDS011;52361;52.100;5.248;2022-12-18T05:48:06;11.1;;;6.6;;
39294;SDS011;52361;52.100;5.248;2022-12-18T05:49:43;8.31;;;5.4;;
39294;SDS011;52361;52.100;5.248;2022-12-18T05:51:20;14.2;;;6.1;;
39294;SDS011;52361;52.100;5.248;2022-12-18T05:54:33;7.0;;;5.11;;
39294;SDS011;52361;52.100;5.248;2022-12-18T05:56:10;8.5;;;5.7;;
39294;SDS011;52361;52.100;5.248;2022-12-18T05:57:50;10.4;;;5.7;;
39294;SDS011;52361;52.100;5.248;2022-12-18T05:59:26;15.2;;;7.6;;
39294;SDS011;52361;52.100;5.248;2022-12-18T06:02:46;6.7;;;4.8;;
39294;SDS011;52361;52.100;5.248;2022-12-18T06:04:23;8.4;;;5.4;;
39294;SDS011;52361;52.100;5.248;2022-12-18T06:05:59;7.4;;;5.5;;
39294;SDS011;52361;52.100;5.248;2022-12-18T06:09:11;8.2;;;6.2;;
39294;SDS011;52361;52.100;5.248;2022-12-18T06:10:49;6.7;;;5.2;;
39294;SDS011;52361;52.100;5.248;2022-12-18T06:12:27;8.1;;;6.7;;
39294;SDS011;52361;52.100;5.248;2022-12-18T06:14:03;13.0;;;5.7;;
39294;SDS011;52361;52.100;5.248;2022-12-18T06:17:17;10.9;;;6.4;;
39294;SDS011;52361;52.100;5.248;2022-12-18T06:18:55;8.0;;;5.5;;
39294;SDS011;52361;52.100;5.248;2022-12-18T06:20:32;6.5;;;4.91;;
39294;SDS011;52361;52.100;5.248;2022-12-18T06:23:44;5.7;;;4.8;;
39294;SDS011;52361;52.100;5.248;2022-12-18T06:25:20;10.5;;;5.4;;
39294;SDS011;52361;52.100;5.248;2022-12-18T06:26:56;8.0;;;5.0;;
39294;SDS011;52361;52.100;5.248;2022-12-18T06:30:10;9.31;;;6.2;;
39294;SDS011;52361;52.100;5.248;2022-12-18T06:31:46;10.0;;;5.9;;
39294;SDS011;52361;52.100;5.248;2022-12-18T06:33:25;8.31;;;5.11;;
39294;SDS011;52361;52.100;5.248;2022-12-18T06:35:02;8.31;;;5.11;;
39294;SDS011;52361;52.100;5.248;2022-12-18T06:38:16;6.9;;;5.5;;
39294;SDS011;52361;52.100;5.248;2022-12-18T06:39:52;5.4;;;4.1;;
39294;SDS011;52361;52.100;5.248;2022-12-18T06:41:28;10.3;;;6.0;;
39294;SDS011;52361;52.100;5.248;2022-12-18T06:44:41;5.2;;;4.2;;
39294;SDS011;52361;52.100;5.248;2022-12-18T06:46:18;6.1;;;5.5;;
39294;SDS011;52361;52.100;5.248;2022-12-18T06:47:55;7.5;;;5.4;;
39294;SDS011;52361;52.100;5.248;2022-12-18T06:49:31;10.8;;;5.7;;
39294;SDS011;52361;52.100;5.248;2022-12-18T06:52:43;10.21;;;5.7;;
39294;SDS011;52361;52.100;5.248;2022-12-18T06:54:20;8.31;;;4.8;;
39294;SDS011;52361;52.100;5.248;2022-12-18T06:55:59;7.1;;;5.5;;
39294;SDS011;52361;52.100;5.248;2022-12-18T06:59:13;7.6;;;5.7;;
39294;SDS011;52361;52.100;5.248;2022-12-18T07:00:50;11.9;;;6.7;;
39294;SDS011;52361;52.100;5.248;2022-12-18T07:02:27;13.0;;;6.9;;
39294;SDS011;52361;52.100;5.248;2022-12-18T07:05:39;8.5;;;5.0;;
39294;SDS011;52361;52.100;5.248;2022-12-18T07:07:16;9.71;;;6.5;;
39294;SDS011;52361;52.100;5.248;2022-12-18T07:08:53;11.4;;;6.1;;
39294;SDS011;52361;52.100;5.248;2022-12-18T07:10:30;11.3;;;7.0;;
39294;SDS011;52361;52.100;5.248;2022-12-18T07:13:43;8.4;;;5.6;;
39294;SDS011;52361;52.100;5.248;2022-12-18T07:16:56;8.6;;;5.8;;
39294;SDS011;52361;52.100;5.248;2022-12-18T07:20:09;8.5;;;5.9;;
39294;SDS011;52361;52.100;5.248;2022-12-18T07:21:46;8.5;;;5.3;;
39294;SDS011;52361;52.100;5.248;2022-12-18T07:23:22;8.71;;;5.5;;
39294;SDS011;52361;52.100;5.248;2022-12-18T07:26:34;12.2;;;6.1;;
39294;SDS011;52361;52.100;5.248;2022-12-18T07:28:11;8.71;;;6.4;;
39294;SDS011;52361;52.100;5.248;2022-12-18T07:29:47;19.11;;;6.4;;
39294;SDS011;52361;52.100;5.248;2022-12-18T07:34:36;11.3;;;6.1;;
39294;SDS011;52361;52.100;5.248;2022-12-18T07:36:13;7.6;;;4.91;;
39294;SDS011;52361;52.100;5.248;2022-12-18T07:37:50;8.6;;;6.0;;
39294;SDS011;52361;52.100;5.248;2022-12-18T07:41:03;9.9;;;5.7;;
39294;SDS011;52361;52.100;5.248;2022-12-18T07:42:40;6.0;;;4.5;;
39294;SDS011;52361;52.100;5.248;2022-12-18T07:44:17;8.31;;;6.1;;
39294;SDS011;52361;52.100;5.248;2022-12-18T07:47:33;8.1;;;5.4;;
39294;SDS011;52361;52.100;5.248;2022-12-18T07:49:10;8.1;;;5.4;;
39294;SDS011;52361;52.100;5.248;2022-12-18T07:50:46;7.8;;;6.0;;
39294;SDS011;52361;52.100;5.248;2022-12-18T07:52:22;8.5;;;4.61;;
39294;SDS011;52361;52.100;5.248;2022-12-18T07:55:35;6.3;;;4.91;;
39294;SDS011;52361;52.100;5.248;2022-12-18T07:57:11;9.1;;;6.2;;
39294;SDS011;52361;52.100;5.248;2022-12-18T07:58:47;5.11;;;4.5;;
39294;SDS011;52361;52.100;5.248;2022-12-18T08:02:00;9.71;;;5.11;;
39294;SDS011;52361;52.100;5.248;2022-12-18T08:03:37;8.6;;;6.2;;
39294;SDS011;52361;52.100;5.248;2022-12-18T08:05:14;8.4;;;5.0;;
39294;SDS011;52361;52.100;5.248;2022-12-18T08:08:27;15.5;;;4.91;;
39294;SDS011;52361;52.100;5.248;2022-12-18T08:10:04;12.9;;;5.7;;
39294;SDS011;52361;52.100;5.248;2022-12-18T08:11:41;8.81;;;5.4;;
39294;SDS011;52361;52.100;5.248;2022-12-18T08:13:18;8.71;;;4.61;;
39294;SDS011;52361;52.100;5.248;2022-12-18T08:16:31;5.7;;;5.11;;
39294;SDS011;52361;52.100;5.248;2022-12-18T08:18:07;9.6;;;6.2;;
39294;SDS011;52361;52.100;5.248;2022-12-18T08:19:43;9.1;;;5.3;;
39294;SDS011;52361;52.100;5.248;2022-12-18T08:22:58;5.7;;;4.3;;
39294;SDS011;52361;52.100;5.248;2022-12-18T08:24:34;9.21;;;5.3;;
39294;SDS011;52361;52.100;5.248;2022-12-18T08:26:10;8.71;;;5.9;;
39294;SDS011;52361;52.100;5.248;2022-12-18T08:29:23;7.8;;;4.91;;
39294;SDS011;52361;52.100;5.248;2022-12-18T08:31:00;6.5;;;4.91;;
39294;SDS011;52361;52.100;5.248;2022-12-18T08:32:36;7.7;;;5.5;;
39294;SDS011;52361;52.100;5.248;2022-12-18T08:34:11;7.7;;;5.3;;
39294;SDS011;52361;52.100;5.248;2022-12-18T08:37:24;10.9;;;6.2;;
39294;SDS011;52361;52.100;5.248;2022-12-18T08:39:00;9.31;;;5.2;;
39294;SDS011;52361;52.100;5.248;2022-12-18T08:40:36;11.0;;;5.6;;
39294;SDS011;52361;52.100;5.248;2022-12-18T08:43:48;7.1;;;4.41;;
39294;SDS011;52361;52.100;5.248;2022-12-18T08:45:25;9.5;;;4.91;;
39294;SDS011;52361;52.100;5.248;2022-12-18T08:47:01;12.8;;;4.8;;
39294;SDS011;52361;52.100;5.248;2022-12-18T08:50:13;10.21;;;5.11;;
39294;SDS011;52361;52.100;5.248;2022-12-18T08:51:53;9.9;;;5.0;;
39294;SDS011;52361;52.100;5.248;2022-12-18T08:53:30;6.3;;;4.8;;
39294;SDS011;52361;52.100;5.248;2022-12-18T08:55:07;5.8;;;4.7;;
39294;SDS011;52361;52.100;5.248;2022-12-18T08:58:21;8.81;;;5.0;;
39294;SDS011;52361;52.100;5.248;2022-12-18T08:59:57;5.6;;;4.3;;
39294;SDS011;52361;52.100;5.248;2022-12-18T09:01:33;6.4;;;5.3;;
39294;SDS011;52361;52.100;5.248;2022-12-18T09:04:47;7.2;;;5.7;;
39294;SDS011;52361;52.100;5.248;2022-12-18T09:06:24;7.6;;;4.7;;
39294;SDS011;52361;52.100;5.248;2022-12-18T09:08:00;6.1;;;4.91;;
39294;SDS011;52361;52.100;5.248;2022-12-18T09:11:14;11.5;;;6.3;;
39294;SDS011;52361;52.100;5.248;2022-12-18T09:12:53;11.8;;;5.8;;
39294;SDS011;52361;52.100;5.248;2022-12-18T09:14:30;5.7;;;4.41;;
39294;SDS011;52361;52.100;5.248;2022-12-18T09:16:06;7.1;;;4.91;;
39294;SDS011;52361;52.100;5.248;2022-12-18T09:19:19;9.31;;;4.61;;
39294;SDS011;52361;52.100;5.248;2022-12-18T09:20:55;5.0;;;4.41;;
39294;SDS011;52361;52.100;5.248;2022-12-18T09:22:31;6.3;;;4.0;;
39294;SDS011;52361;52.100;5.248;2022-12-18T09:25:48;7.1;;;5.2;;
39294;SDS011;52361;52.100;5.248;2022-12-18T09:27:25;4.8;;;4.0;;
39294;SDS011;52361;52.100;5.248;2022-12-18T09:29:01;5.8;;;4.2;;
39294;SDS011;52361;52.100;5.248;2022-12-18T09:30:38;6.8;;;3.8;;
39294;SDS011;52361;52.100;5.248;2022-12-18T09:33:54;8.71;;;4.5;;
39294;SDS011;52361;52.100;5.248;2022-12-18T09:35:30;8.1;;;4.8;;
39294;SDS011;52361;52.100;5.248;2022-12-18T09:37:07;7.6;;;3.9;;
39294;SDS011;52361;52.100;5.248;2022-12-18T09:40:21;7.0;;;4.2;;
39294;SDS011;52361;52.100;5.248;2022-12-18T09:42:01;6.9;;;5.11;;
39294;SDS011;52361;52.100;5.248;2022-12-18T09:43:40;6.0;;;5.11;;
39294;SDS011;52361;52.100;5.248;2022-12-18T09:48:46;11.3;;;5.5;;
39294;SDS011;52361;52.100;5.248;2022-12-18T09:50:27;17.5;;;6.1;;
39294;SDS011;52361;52.100;5.248;2022-12-18T09:52:09;8.4;;;5.0;;
39294;SDS011;52361;52.100;5.248;2022-12-18T09:53:52;5.7;;;4.0;;
39294;SDS011;52361;52.100;5.248;2022-12-18T09:57:14;9.4;;;3.7;;
39294;SDS011;52361;52.100;5.248;2022-12-18T09:58:55;13.9;;;6.0;;
39294;SDS011;52361;52.100;5.248;2022-12-18T10:00:34;7.7;;;5.3;;
39294;SDS011;52361;52.100;5.248;2022-12-18T10:02:13;6.2;;;4.2;;
39294;SDS011;52361;52.100;5.248;2022-12-18T10:05:32;8.9;;;4.91;;
39294;SDS011;52361;52.100;5.248;2022-12-18T10:07:24;7.1;;;4.3;;
39294;SDS011;52361;52.100;5.248;2022-12-18T10:09:11;7.7;;;3.9;;
39294;SDS011;52361;52.100;5.248;2022-12-18T10:10:57;5.7;;;4.2;;
39294;SDS011;52361;52.100;5.248;2022-12-18T10:12:45;7.9;;;5.11;;
39294;SDS011;52361;52.100;5.248;2022-12-18T10:14:34;7.7;;;5.6;;
39294;SDS011;52361;52.100;5.248;2022-12-18T10:18:03;5.11;;;3.5;;
39294;SDS011;52361;52.100;5.248;2022-12-18T10:19:58;5.2;;;4.2;;
39294;SDS011;52361;52.100;5.248;2022-12-18T10:21:39;8.6;;;4.41;;
39294;SDS011;52361;52.100;5.248;2022-12-18T10:23:25;7.6;;;4.1;;
39294;SDS011;52361;52.100;5.248;2022-12-18T10:25:14;8.31;;;4.91;;
39294;SDS011;52361;52.100;5.248;2022-12-18T10:28:45;7.8;;;4.61;;
39294;SDS011;52361;52.100;5.248;2022-12-18T10:30:22;4.3;;;3.9;;
39294;SDS011;52361;52.100;5.248;2022-12-18T10:32:01;5.11;;;4.41;;
39294;SDS011;52361;52.100;5.248;2022-12-18T10:33:38;8.31;;;5.4;;
39294;SDS011;52361;52.100;5.248;2022-12-18T10:36:55;6.9;;;5.0;;
39294;SDS011;52361;52.100;5.248;2022-12-18T10:38:32;8.5;;;3.7;;
39294;SDS011;52361;52.100;5.248;2022-12-18T10:40:10;5.5;;;4.41;;
39294;SDS011;52361;52.100;5.248;2022-12-18T10:43:25;6.1;;;4.1;;
39294;SDS011;52361;52.100;5.248;2022-12-18T10:45:08;5.8;;;3.4;;
39294;SDS011;52361;52.100;5.248;2022-12-18T10:46:50;5.6;;;4.2;;
39294;SDS011;52361;52.100;5.248;2022-12-18T10:48:30;7.4;;;4.61;;
39294;SDS011;52361;52.100;5.248;2022-12-18T10:50:11;5.9;;;4.1;;
39294;SDS011;52361;52.100;5.248;2022-12-18T10:53:44;5.6;;;3.7;;
39294;SDS011;52361;52.100;5.248;2022-12-18T10:55:31;5.9;;;4.41;;
39294;SDS011;52361;52.100;5.248;2022-12-18T10:57:18;7.0;;;4.0;;
39294;SDS011;52361;52.100;5.248;2022-12-18T10:59:07;7.7;;;4.8;;
39294;SDS011;52361;52.100;5.248;2022-12-18T11:00:46;3.8;;;3.0;;
39294;SDS011;52361;52.100;5.248;2022-12-18T11:02:39;6.5;;;4.41;;
39294;SDS011;52361;52.100;5.248;2022-12-18T11:06:01;9.1;;;5.11;;
39294;SDS011;52361;52.100;5.248;2022-12-18T11:07:46;8.2;;;4.41;;
39294;SDS011;52361;52.100;5.248;2022-12-18T11:09:24;11.0;;;4.2;;
39294;SDS011;52361;52.100;5.248;2022-12-18T11:11:02;7.2;;;3.7;;
39294;SDS011;52361;52.100;5.248;2022-12-18T11:14:21;6.7;;;3.9;;
39294;SDS011;52361;52.100;5.248;2022-12-18T11:16:00;5.2;;;3.6;;
39294;SDS011;52361;52.100;5.248;2022-12-18T11:17:36;8.1;;;4.2;;
39294;SDS011;52361;52.100;5.248;2022-12-18T11:21:00;5.2;;;3.9;;
39294;SDS011;52361;52.100;5.248;2022-12-18T11:22:44;7.4;;;4.3;;
39294;SDS011;52361;52.100;5.248;2022-12-18T11:24:32;8.2;;;3.6;;
39294;SDS011;52361;52.100;5.248;2022-12-18T11:26:12;6.3;;;4.3;;
39294;SDS011;52361;52.100;5.248;2022-12-18T11:27:50;4.61;;;3.4;;
39294;SDS011;52361;52.100;5.248;2022-12-18T11:31:22;6.7;;;3.5;;
39294;SDS011;52361;52.100;5.248;2022-12-18T11:33:02;6.1;;;3.7;;
39294;SDS011;52361;52.100;5.248;2022-12-18T11:34:42;5.3;;;4.0;;
39294;SDS011;52361;52.100;5.248;2022-12-18T11:36:23;6.6;;;4.2;;
39294;SDS011;52361;52.100;5.248;2022-12-18T11:39:49;7.3;;;4.1;;
39294;SDS011;52361;52.100;5.248;2022-12-18T11:41:32;6.9;;;3.8;;
39294;SDS011;52361;52.100;5.248;2022-12-18T11:43:17;7.4;;;3.9;;
39294;SDS011;52361;52.100;5.248;2022-12-18T11:45:02;7.5;;;4.61;;
39294;SDS011;52361;52.100;5.248;2022-12-18T11:46:58;5.8;;;4.0;;
39294;SDS011;52361;52.100;5.248;2022-12-18T11:50:23;7.3;;;4.5;;
39294;SDS011;52361;52.100;5.248;2022-12-18T11:52:04;8.1;;;5.3;;
39294;SDS011;52361;52.100;5.248;2022-12-18T11:53:51;8.4;;;5.11;;
39294;SDS011;52361;52.100;5.248;2022-12-18T11:55:30;6.7;;;4.41;;
39294;SDS011;52361;52.100;5.248;2022-12-18T11:57:26;6.2;;;3.9;;
39294;SDS011;52361;52.100;5.248;2022-12-18T11:59:13;7.0;;;4.5;;
39294;SDS011;52361;52.100;5.248;2022-12-18T12:03:03;6.1;;;5.5;;
39294;SDS011;52361;52.100;5.248;2022-12-18T12:06:36;7.3;;;4.5;;
39294;SDS011;52361;52.100;5.248;2022-12-18T12:08:24;8.71;;;5.6;;
39294;SDS011;52361;52.100;5.248;2022-12-18T12:12:10;5.8;;;3.9;;
39294;SDS011;52361;52.100;5.248;2022-12-18T12:14:05;7.0;;;4.3;;
39294;SDS011;52361;52.100;5.248;2022-12-18T12:16:11;10.0;;;5.3;;
39294;SDS011;52361;52.100;5.248;2022-12-18T12:19:43;7.3;;;4.2;;
39294;SDS011;52361;52.100;5.248;2022-12-18T12:21:28;9.0;;;4.2;;
39294;SDS011;52361;52.100;5.248;2022-12-18T12:23:17;6.2;;;4.5;;
39294;SDS011;52361;52.100;5.248;2022-12-18T12:25:14;6.8;;;4.61;;
39294;SDS011;52361;52.100;5.248;2022-12-18T12:27:00;12.9;;;4.8;;
39294;SDS011;52361;52.100;5.248;2022-12-18T12:28:57;7.7;;;5.2;;
39294;SDS011;52361;52.100;5.248;2022-12-18T12:30:43;7.7;;;5.0;;
39294;SDS011;52361;52.100;5.248;2022-12-18T12:34:26;8.0;;;4.7;;
39294;SDS011;52361;52.100;5.248;2022-12-18T12:36:12;8.81;;;4.5;;
39294;SDS011;52361;52.100;5.248;2022-12-18T12:38:01;12.1;;;4.7;;
39294;SDS011;52361;52.100;5.248;2022-12-18T12:39:45;8.9;;;5.2;;
39294;SDS011;52361;52.100;5.248;2022-12-18T12:41:23;9.81;;;6.3;;
39294;SDS011;52361;52.100;5.248;2022-12-18T12:43:04;11.1;;;5.7;;
39294;SDS011;52361;52.100;5.248;2022-12-18T12:46:41;8.6;;;4.5;;
39294;SDS011;52361;52.100;5.248;2022-12-18T12:48:22;7.5;;;5.11;;
39294;SDS011;52361;52.100;5.248;2022-12-18T12:50:12;10.21;;;5.5;;
39294;SDS011;52361;52.100;5.248;2022-12-18T12:51:53;7.8;;;4.3;;
39294;SDS011;52361;52.100;5.248;2022-12-18T12:53:37;10.7;;;5.2;;
39294;SDS011;52361;52.100;5.248;2022-12-18T12:56:57;11.3;;;5.5;;
39294;SDS011;52361;52.100;5.248;2022-12-18T12:58:43;16.11;;;5.2;;
39294;SDS011;52361;52.100;5.248;2022-12-18T13:00:27;11.5;;;5.6;;
39294;SDS011;52361;52.100;5.248;2022-12-18T13:02:16;7.7;;;5.11;;
39294;SDS011;52361;52.100;5.248;2022-12-18T13:04:01;7.3;;;4.91;;